Aeroporto :
LOGIN :

Iscrizione | Disclaimer

   EN    FR    IT 

 










Sommario :    VFR   VFR Marginale   IFR   IFR Intensivo   IFR Molto Intensivo
Visibilità : 
Base nubi : 
>= 8 km
>= 3000ft
5 / 8 km
1000 / 3000 ft
1500m / 5 km
500 / 1000 ft
800 / 1500m
200 / 500 ft
< 800m
< 200 ft
Simboli :   Temporali  Nebbia  Neve Forte  Precipitazioni Forti  Vento > 20 kt
SIGMETs :   Varie  Temporali  Ghiacco  Turbolenza  Onda orograficha  Ceneri Vulcaniche






- Altitudine del aeroporto : 1267 ft
- Codice IATA : CUF


LIMZ - Cuneo Levaldigi

ULTIMO METAR :
  • 071750Z 23002KT CAVOK 02/01 Q1019

METARs OBSOLETI :
  • 071650Z 25003KT 8000 NSC 04/02 Q1018
  • 071550Z 04002KT CAVOK 06/03 Q1018

TAF TAF LIMZ
Valido dal 07 a 18 ore il 08 a 18 ore UTC


071700Z 0718/0818 VRB05KT 7000 NSC
TEMPO 0800/0808 3000 BR
BECMG 0814/0816 3500 BR BKN012 BKN040



MetMap, La meteo Aeronautica in un colpo d'occhio ! - Copyright ORBIFLY Dicembre 2007 - Disclaimer

ORBIFLY MET'MAP TEAM :

Programmazione e sviluppo : Alexandra Zaïnal
Concezione : Baudouin d'Aumeries
Aiuto per la programmazione : Marc-Olivier Méhu
Supporto tecnico e logistico : Manuel Goepfert
Aiuto per la traduzione : Arnaldo La Scala

Contatto : metmap@orbifly.com




FONTI E CREDITI :

   NOAA